sensor_id;sensor_type;location;lat;lon;timestamp;pressure;altitude;pressure_sealevel;temperature;humidity
81397;BME280;70852;49.908;8.126;2023-07-28T00:01:29;99487.66;;;16.90;91.41
81397;BME280;70852;49.908;8.126;2023-07-28T00:03:55;99483.66;;;16.88;90.67
81397;BME280;70852;49.908;8.126;2023-07-28T00:06:20;99480.50;;;16.89;90.85
81397;BME280;70852;49.908;8.126;2023-07-28T00:08:48;99479.63;;;16.85;90.66
81397;BME280;70852;49.908;8.126;2023-07-28T00:11:15;99476.38;;;16.79;91.38
81397;BME280;70852;49.908;8.126;2023-07-28T00:13:41;99471.13;;;16.74;90.96
81397;BME280;70852;49.908;8.126;2023-07-28T00:16:08;99482.78;;;16.80;91.26
81397;BME280;70852;49.908;8.126;2023-07-28T00:18:36;99471.53;;;16.73;91.38
81397;BME280;70852;49.908;8.126;2023-07-28T00:21:07;99469.97;;;16.75;91.14
81397;BME280;70852;49.908;8.126;2023-07-28T00:23:32;99466.78;;;16.77;90.99
81397;BME280;70852;49.908;8.126;2023-07-28T00:25:57;99456.44;;;16.77;91.51
81397;BME280;70852;49.908;8.126;2023-07-28T00:28:30;99464.81;;;16.77;91.01
81397;BME280;70852;49.908;8.126;2023-07-28T00:30:55;99454.47;;;16.78;90.88
81397;BME280;70852;49.908;8.126;2023-07-28T00:33:23;99464.44;;;16.79;90.96
81397;BME280;70852;49.908;8.126;2023-07-28T00:35:49;99460.41;;;16.76;91.21
81397;BME280;70852;49.908;8.126;2023-07-28T00:38:14;99449.69;;;16.78;91.68
81397;BME280;70852;49.908;8.126;2023-07-28T00:40:42;99447.31;;;16.80;91.24
81397;BME280;70852;49.908;8.126;2023-07-28T00:43:07;99442.94;;;16.79;91.41
81397;BME280;70852;49.908;8.126;2023-07-28T00:45:36;99429.41;;;16.81;91.03
81397;BME280;70852;49.908;8.126;2023-07-28T00:48:01;99443.69;;;16.76;90.17
81397;BME280;70852;49.908;8.126;2023-07-28T00:50:27;99447.66;;;16.75;91.07
81397;BME280;70852;49.908;8.126;2023-07-28T00:52:53;99446.44;;;16.73;91.04
81397;BME280;70852;49.908;8.126;2023-07-28T00:55:20;99442.81;;;16.69;91.05
81397;BME280;70852;49.908;8.126;2023-07-28T00:57:48;99451.19;;;16.69;91.70
81397;BME280;70852;49.908;8.126;2023-07-28T01:00:16;99443.19;;;16.67;91.24
81397;BME280;70852;49.908;8.126;2023-07-28T01:02:41;99437.56;;;16.64;91.59
81397;BME280;70852;49.908;8.126;2023-07-28T01:05:09;99446.81;;;16.71;91.15
81397;BME280;70852;49.908;8.126;2023-07-28T01:10:05;99445.66;;;16.72;91.32
81397;BME280;70852;49.908;8.126;2023-07-28T01:12:34;99448.47;;;16.76;91.32
81397;BME280;70852;49.908;8.126;2023-07-28T01:15:02;99442.88;;;16.72;91.42
81397;BME280;70852;49.908;8.126;2023-07-28T01:17:30;99446.81;;;16.71;91.86
81397;BME280;70852;49.908;8.126;2023-07-28T01:19:58;99449.50;;;16.64;91.51
81397;BME280;70852;49.908;8.126;2023-07-28T01:25:02;99452.31;;;16.64;91.23
81397;BME280;70852;49.908;8.126;2023-07-28T01:27:33;99448.66;;;16.60;91.58
81397;BME280;70852;49.908;8.126;2023-07-28T01:29:59;99452.31;;;16.64;91.76
81397;BME280;70852;49.908;8.126;2023-07-28T01:32:27;99450.69;;;16.63;91.73
81397;BME280;70852;49.908;8.126;2023-07-28T01:34:57;99446.72;;;16.64;91.54
81397;BME280;70852;49.908;8.126;2023-07-28T01:37:25;99447.63;;;16.72;91.34
81397;BME280;70852;49.908;8.126;2023-07-28T01:39:50;99448.75;;;16.67;91.83
81397;BME280;70852;49.908;8.126;2023-07-28T01:42:18;99441.69;;;16.73;91.58
81397;BME280;70852;49.908;8.126;2023-07-28T01:44:49;99443.63;;;16.69;91.83
81397;BME280;70852;49.908;8.126;2023-07-28T01:47:15;99441.56;;;16.63;91.59
81397;BME280;70852;49.908;8.126;2023-07-28T01:49:40;99446.31;;;16.62;91.99
81397;BME280;70852;49.908;8.126;2023-07-28T01:52:05;99452.72;;;16.66;91.64
81397;BME280;70852;49.908;8.126;2023-07-28T01:54:35;99447.53;;;16.65;91.50
81397;BME280;70852;49.908;8.126;2023-07-28T01:57:00;99445.13;;;16.63;91.40
81397;BME280;70852;49.908;8.126;2023-07-28T01:59:28;99445.53;;;16.62;91.59
81397;BME280;70852;49.908;8.126;2023-07-28T02:01:53;99452.72;;;16.66;90.99
81397;BME280;70852;49.908;8.126;2023-07-28T02:04:23;99448.34;;;16.65;91.69
81397;BME280;70852;49.908;8.126;2023-07-28T02:06:48;99446.31;;;16.62;91.45
81397;BME280;70852;49.908;8.126;2023-07-28T02:09:13;99443.44;;;16.59;92.03
81397;BME280;70852;49.908;8.126;2023-07-28T02:11:39;99448.53;;;16.53;91.91
81397;BME280;70852;49.908;8.126;2023-07-28T02:14:07;99447.38;;;16.54;91.83
81397;BME280;70852;49.908;8.126;2023-07-28T02:16:34;99444.19;;;16.52;91.79
81397;BME280;70852;49.908;8.126;2023-07-28T02:18:59;99448.53;;;16.53;91.75
81397;BME280;70852;49.908;8.126;2023-07-28T02:21:25;99446.16;;;16.52;92.50
81397;BME280;70852;49.908;8.126;2023-07-28T02:23:53;99458.94;;;16.56;91.89
81397;BME280;70852;49.908;8.126;2023-07-28T02:26:20;99442.66;;;16.58;91.69
81397;BME280;70852;49.908;8.126;2023-07-28T02:28:48;99445.00;;;16.56;91.82
81397;BME280;70852;49.908;8.126;2023-07-28T02:31:16;99441.09;;;16.61;91.66
81397;BME280;70852;49.908;8.126;2023-07-28T02:33:41;99446.31;;;16.62;91.40
81397;BME280;70852;49.908;8.126;2023-07-28T02:36:06;99436.69;;;16.60;91.98
81397;BME280;70852;49.908;8.126;2023-07-28T02:38:32;99431.13;;;16.60;92.01
81397;BME280;70852;49.908;8.126;2023-07-28T02:40:57;99431.06;;;16.56;92.05
81397;BME280;70852;49.908;8.126;2023-07-28T02:43:25;99440.66;;;16.59;91.71
81397;BME280;70852;49.908;8.126;2023-07-28T02:45:54;99444.63;;;16.58;91.86
81397;BME280;70852;49.908;8.126;2023-07-28T02:48:23;99437.06;;;16.58;92.06
81397;BME280;70852;49.908;8.126;2023-07-28T02:50:50;99436.28;;;16.58;91.93
81397;BME280;70852;49.908;8.126;2023-07-28T02:53:16;99442.22;;;16.56;92.34
81397;BME280;70852;49.908;8.126;2023-07-28T02:55:42;99439.94;;;16.62;91.60
81397;BME280;70852;49.908;8.126;2023-07-28T02:58:10;99435.53;;;16.61;91.55
81397;BME280;70852;49.908;8.126;2023-07-28T03:00:41;99439.41;;;16.53;91.97
81397;BME280;70852;49.908;8.126;2023-07-28T03:03:12;99430.66;;;16.54;91.88
81397;BME280;70852;49.908;8.126;2023-07-28T03:05:38;99428.25;;;16.53;92.02
81397;BME280;70852;49.908;8.126;2023-07-28T03:08:06;99439.06;;;16.58;91.92
81397;BME280;70852;49.908;8.126;2023-07-28T03:10:32;99438.94;;;16.47;92.18
81397;BME280;70852;49.908;8.126;2023-07-28T03:12:58;99437.31;;;16.46;92.21
81397;BME280;70852;49.908;8.126;2023-07-28T03:15:23;99438.13;;;16.46;92.61
81397;BME280;70852;49.908;8.126;2023-07-28T03:17:52;99445.38;;;16.55;92.35
81397;BME280;70852;49.908;8.126;2023-07-28T03:20:19;99443.31;;;16.48;92.36
81397;BME280;70852;49.908;8.126;2023-07-28T03:22:45;99452.88;;;16.47;92.19
81397;BME280;70852;49.908;8.126;2023-07-28T03:25:13;99448.91;;;16.48;92.17
81397;BME280;70852;49.908;8.126;2023-07-28T03:27:38;99449.78;;;16.56;91.49
81397;BME280;70852;49.908;8.126;2023-07-28T03:30:04;99443.31;;;16.48;91.50
81397;BME280;70852;49.908;8.126;2023-07-28T03:32:32;99447.38;;;16.54;92.05
81397;BME280;70852;49.908;8.126;2023-07-28T03:34:59;99444.50;;;16.47;91.75
81397;BME280;70852;49.908;8.126;2023-07-28T03:37:29;99442.56;;;16.51;91.69
81397;BME280;70852;49.908;8.126;2023-07-28T03:39:54;99444.13;;;16.48;92.64
81397;BME280;70852;49.908;8.126;2023-07-28T03:42:22;99437.41;;;16.53;92.00
81397;BME280;70852;49.908;8.126;2023-07-28T03:44:48;99443.41;;;16.55;91.77
81397;BME280;70852;49.908;8.126;2023-07-28T03:47:13;99451.34;;;16.53;92.45
81397;BME280;70852;49.908;8.126;2023-07-28T03:49:38;99454.56;;;16.55;92.87
81397;BME280;70852;49.908;8.126;2023-07-28T03:52:08;99451.75;;;16.55;92.23
81397;BME280;70852;49.908;8.126;2023-07-28T03:54:34;99448.53;;;16.53;92.87
81397;BME280;70852;49.908;8.126;2023-07-28T03:57:01;99444.63;;;16.58;92.71
81397;BME280;70852;49.908;8.126;2023-07-28T03:59:26;99446.25;;;16.59;92.55
81397;BME280;70852;49.908;8.126;2023-07-28T04:01:51;99444.59;;;16.54;92.67
81397;BME280;70852;49.908;8.126;2023-07-28T04:04:18;99451.81;;;16.59;91.74
81397;BME280;70852;49.908;8.126;2023-07-28T04:06:51;99445.88;;;16.60;91.61
81397;BME280;70852;49.908;8.126;2023-07-28T04:09:19;99447.78;;;16.56;92.03
81397;BME280;70852;49.908;8.126;2023-07-28T04:11:49;99451.00;;;16.58;92.08
81397;BME280;70852;49.908;8.126;2023-07-28T04:14:16;99457.88;;;16.64;91.92
81397;BME280;70852;49.908;8.126;2023-07-28T04:16:42;99458.28;;;16.63;92.58
81397;BME280;70852;49.908;8.126;2023-07-28T04:19:07;99469.84;;;16.65;92.27
81397;BME280;70852;49.908;8.126;2023-07-28T04:21:34;99461.09;;;16.66;92.53
81397;BME280;70852;49.908;8.126;2023-07-28T04:24:02;99463.84;;;16.63;91.86
81397;BME280;70852;49.908;8.126;2023-07-28T04:26:30;99464.19;;;16.61;92.09
81397;BME280;70852;49.908;8.126;2023-07-28T04:28:58;99475.03;;;16.66;92.22
81397;BME280;70852;49.908;8.126;2023-07-28T04:31:24;99479.91;;;16.73;91.83
81397;BME280;70852;49.908;8.126;2023-07-28T04:33:51;99483.50;;;16.73;91.82
81397;BME280;70852;49.908;8.126;2023-07-28T04:36:17;99478.81;;;16.81;92.29
81397;BME280;70852;49.908;8.126;2023-07-28T04:38:42;99480.06;;;16.87;91.55
81397;BME280;70852;49.908;8.126;2023-07-28T04:41:12;99484.09;;;16.90;91.86
81397;BME280;70852;49.908;8.126;2023-07-28T04:43:39;99494.84;;;16.91;92.04
81397;BME280;70852;49.908;8.126;2023-07-28T04:46:09;99503.28;;;16.95;91.85
81397;BME280;70852;49.908;8.126;2023-07-28T04:48:34;99503.31;;;16.98;91.94
81397;BME280;70852;49.908;8.126;2023-07-28T04:51:02;99505.34;;;17.01;92.02
81397;BME280;70852;49.908;8.126;2023-07-28T04:53:27;99517.72;;;17.04;91.94
81397;BME280;70852;49.908;8.126;2023-07-28T04:55:53;99515.34;;;17.06;91.50
81397;BME280;70852;49.908;8.126;2023-07-28T04:58:18;99515.75;;;17.08;92.02
81397;BME280;70852;49.908;8.126;2023-07-28T05:00:43;99514.25;;;17.14;91.76
81397;BME280;70852;49.908;8.126;2023-07-28T05:03:11;99512.66;;;17.13;91.93
81397;BME280;70852;49.908;8.126;2023-07-28T05:05:36;99518.97;;;17.10;90.97
81397;BME280;70852;49.908;8.126;2023-07-28T05:08:01;99516.19;;;17.10;91.10
81397;BME280;70852;49.908;8.126;2023-07-28T05:10:27;99511.53;;;17.21;90.31
81397;BME280;70852;49.908;8.126;2023-07-28T05:12:52;99513.56;;;17.24;90.93
81397;BME280;70852;49.908;8.126;2023-07-28T05:15:19;99515.19;;;17.29;90.55
81397;BME280;70852;49.908;8.126;2023-07-28T05:17:45;99508.47;;;17.33;89.99
81397;BME280;70852;49.908;8.126;2023-07-28T05:20:10;99505.31;;;17.35;89.75
81397;BME280;70852;49.908;8.126;2023-07-28T05:22:36;99499.34;;;17.40;89.73
81397;BME280;70852;49.908;8.126;2023-07-28T05:25:01;99495.91;;;17.53;88.87
81397;BME280;70852;49.908;8.126;2023-07-28T05:27:26;99494.25;;;17.45;88.14
81397;BME280;70852;49.908;8.126;2023-07-28T05:29:55;99501.44;;;17.50;89.19
81397;BME280;70852;49.908;8.126;2023-07-28T05:32:22;99507.50;;;17.55;89.89
81397;BME280;70852;49.908;8.126;2023-07-28T05:34:47;99509.91;;;17.57;89.61
81397;BME280;70852;49.908;8.126;2023-07-28T05:37:15;99517.56;;;17.64;89.34
81397;BME280;70852;49.908;8.126;2023-07-28T05:39:42;99516.09;;;17.77;89.53
81397;BME280;70852;49.908;8.126;2023-07-28T05:42:09;99515.00;;;17.88;88.53
81397;BME280;70852;49.908;8.126;2023-07-28T05:44:34;99517.44;;;17.97;88.16
81397;BME280;70852;49.908;8.126;2023-07-28T05:47:02;99513.50;;;18.05;88.38
81397;BME280;70852;49.908;8.126;2023-07-28T05:49:28;99517.13;;;18.06;87.71
81397;BME280;70852;49.908;8.126;2023-07-28T05:51:55;99510.38;;;18.10;87.38
81397;BME280;70852;49.908;8.126;2023-07-28T05:54:21;99516.81;;;18.18;88.82
81397;BME280;70852;49.908;8.126;2023-07-28T05:56:46;99518.41;;;18.22;87.36
81397;BME280;70852;49.908;8.126;2023-07-28T05:59:14;99522.00;;;18.19;87.02
81397;BME280;70852;49.908;8.126;2023-07-28T06:01:40;99520.09;;;18.31;87.62
81397;BME280;70852;49.908;8.126;2023-07-28T06:04:07;99520.09;;;18.31;87.11
81397;BME280;70852;49.908;8.126;2023-07-28T06:06:35;99517.56;;;18.15;86.94
81397;BME280;70852;49.908;8.126;2023-07-28T06:09:00;99520.41;;;18.18;87.51
81397;BME280;70852;49.908;8.126;2023-07-28T06:11:28;99519.94;;;18.09;86.93
81397;BME280;70852;49.908;8.126;2023-07-28T06:13:53;99528.31;;;18.09;87.20
81397;BME280;70852;49.908;8.126;2023-07-28T06:16:18;99527.09;;;18.07;87.08
81397;BME280;70852;49.908;8.126;2023-07-28T06:18:44;99532.88;;;18.32;85.84
81397;BME280;70852;49.908;8.126;2023-07-28T06:21:11;99538.50;;;18.39;87.09
81397;BME280;70852;49.908;8.126;2023-07-28T06:23:39;99540.69;;;18.63;85.81
81397;BME280;70852;49.908;8.126;2023-07-28T06:26:04;99534.88;;;19.07;85.44
81397;BME280;70852;49.908;8.126;2023-07-28T06:28:32;99531.69;;;19.12;84.23
81397;BME280;70852;49.908;8.126;2023-07-28T06:31:02;99534.16;;;19.35;84.56
81397;BME280;70852;49.908;8.126;2023-07-28T06:33:30;99534.25;;;19.56;83.82
81397;BME280;70852;49.908;8.126;2023-07-28T06:35:58;99539.03;;;19.52;82.99
81397;BME280;70852;49.908;8.126;2023-07-28T06:38:25;99537.44;;;19.65;81.18
81397;BME280;70852;49.908;8.126;2023-07-28T06:40:54;99543.06;;;19.58;81.94
81397;BME280;70852;49.908;8.126;2023-07-28T06:43:22;99541.03;;;19.55;82.88
81397;BME280;70852;49.908;8.126;2023-07-28T06:45:50;99540.19;;;19.44;81.61
81397;BME280;70852;49.908;8.126;2023-07-28T06:48:16;99541.47;;;19.86;81.61
81397;BME280;70852;49.908;8.126;2023-07-28T06:50:41;99541.47;;;19.93;79.74
81397;BME280;70852;49.908;8.126;2023-07-28T06:53:09;99550.28;;;20.44;77.42
81397;BME280;70852;49.908;8.126;2023-07-28T06:55:37;99554.50;;;21.02;76.11
81397;BME280;70852;49.908;8.126;2023-07-28T06:58:07;99553.53;;;21.41;75.06
81397;BME280;70852;49.908;8.126;2023-07-28T07:00:34;99561.16;;;21.47;76.01
81397;BME280;70852;49.908;8.126;2023-07-28T07:03:00;99560.56;;;21.74;75.48
81397;BME280;70852;49.908;8.126;2023-07-28T07:05:27;99561.22;;;21.99;73.94
81397;BME280;70852;49.908;8.126;2023-07-28T07:07:53;99558.84;;;22.39;71.54
81397;BME280;70852;49.908;8.126;2023-07-28T07:10:21;99560.22;;;22.23;71.66
81397;BME280;70852;49.908;8.126;2023-07-28T07:12:46;99563.16;;;22.06;71.20
81397;BME280;70852;49.908;8.126;2023-07-28T07:15:11;99581.63;;;22.10;70.49
81397;BME280;70852;49.908;8.126;2023-07-28T07:17:37;99572.88;;;22.87;69.59
81397;BME280;70852;49.908;8.126;2023-07-28T07:20:05;99573.13;;;22.58;68.28
81397;BME280;70852;49.908;8.126;2023-07-28T07:22:35;99582.47;;;22.04;69.85
81397;BME280;70852;49.908;8.126;2023-07-28T07:25:00;99590.25;;;21.78;71.69
81397;BME280;70852;49.908;8.126;2023-07-28T07:27:25;99584.38;;;21.55;73.07
81397;BME280;70852;49.908;8.126;2023-07-28T07:29:56;99585.31;;;21.97;71.47
81397;BME280;70852;49.908;8.126;2023-07-28T07:32:26;99589.00;;;21.86;72.51
81397;BME280;70852;49.908;8.126;2023-07-28T07:34:54;99587.34;;;21.92;73.54
81397;BME280;70852;49.908;8.126;2023-07-28T07:37:19;99596.19;;;21.91;71.88
81397;BME280;70852;49.908;8.126;2023-07-28T07:39:44;99587.13;;;21.62;73.05
81397;BME280;70852;49.908;8.126;2023-07-28T07:42:10;99599.56;;;21.68;72.41
81397;BME280;70852;49.908;8.126;2023-07-28T07:44:39;99597.97;;;21.64;71.08
81397;BME280;70852;49.908;8.126;2023-07-28T07:47:12;99596.19;;;21.91;73.20
81397;BME280;70852;49.908;8.126;2023-07-28T07:49:39;99603.84;;;21.90;72.40
81397;BME280;70852;49.908;8.126;2023-07-28T07:52:09;99609.66;;;22.21;71.57
81397;BME280;70852;49.908;8.126;2023-07-28T07:54:37;99608.44;;;22.22;70.10
81397;BME280;70852;49.908;8.126;2023-07-28T07:57:03;99600.84;;;22.63;70.20
81397;BME280;70852;49.908;8.126;2023-07-28T07:59:29;99608.50;;;22.59;68.93
81397;BME280;70852;49.908;8.126;2023-07-28T08:01:57;99612.06;;;22.19;69.72
81397;BME280;70852;49.908;8.126;2023-07-28T08:04:25;99620.59;;;22.08;72.01
81397;BME280;70852;49.908;8.126;2023-07-28T08:06:53;99616.38;;;21.75;70.89
81397;BME280;70852;49.908;8.126;2023-07-28T08:09:19;99614.53;;;21.47;71.60
81397;BME280;70852;49.908;8.126;2023-07-28T08:11:47;99619.75;;;21.42;71.84
81397;BME280;70852;49.908;8.126;2023-07-28T08:14:15;99614.41;;;21.69;71.71
81397;BME280;70852;49.908;8.126;2023-07-28T08:16:43;99615.44;;;21.96;70.05
81397;BME280;70852;49.908;8.126;2023-07-28T08:19:08;99624.22;;;22.09;70.30
81397;BME280;70852;49.908;8.126;2023-07-28T08:21:37;99614.00;;;22.29;68.58
81397;BME280;70852;49.908;8.126;2023-07-28T08:24:03;99615.19;;;22.35;66.64
81397;BME280;70852;49.908;8.126;2023-07-28T08:26:32;99618.66;;;21.98;69.70
81397;BME280;70852;49.908;8.126;2023-07-28T08:28:59;99617.63;;;21.64;71.25
81397;BME280;70852;49.908;8.126;2023-07-28T08:31:29;99620.94;;;21.44;71.89
81397;BME280;70852;49.908;8.126;2023-07-28T08:33:54;99620.25;;;21.96;70.08
81397;BME280;70852;49.908;8.126;2023-07-28T08:36:22;99612.66;;;21.92;70.24
81397;BME280;70852;49.908;8.126;2023-07-28T08:38:53;99618.75;;;22.39;68.53
81397;BME280;70852;49.908;8.126;2023-07-28T08:41:21;99610.56;;;22.55;69.69
81397;BME280;70852;49.908;8.126;2023-07-28T08:43:46;99600.94;;;22.94;67.07
81397;BME280;70852;49.908;8.126;2023-07-28T08:46:12;99607.63;;;23.41;62.99
81397;BME280;70852;49.908;8.126;2023-07-28T08:48:41;99613.44;;;24.15;63.78
81397;BME280;70852;49.908;8.126;2023-07-28T08:51:12;99612.13;;;24.46;60.41
81397;BME280;70852;49.908;8.126;2023-07-28T08:53:40;99616.63;;;24.87;60.10
81397;BME280;70852;49.908;8.126;2023-07-28T08:56:06;99620.28;;;24.40;60.74
81397;BME280;70852;49.908;8.126;2023-07-28T08:58:35;99618.91;;;23.98;62.87
81397;BME280;70852;49.908;8.126;2023-07-28T09:01:00;99623.53;;;23.85;64.02
81397;BME280;70852;49.908;8.126;2023-07-28T09:03:27;99615.63;;;23.43;63.34
81397;BME280;70852;49.908;8.126;2023-07-28T09:06:00;99620.78;;;23.17;64.34
81397;BME280;70852;49.908;8.126;2023-07-28T09:08:28;99619.75;;;23.34;64.81
81397;BME280;70852;49.908;8.126;2023-07-28T09:10:57;99616.00;;;23.45;61.93
81397;BME280;70852;49.908;8.126;2023-07-28T09:13:35;99618.81;;;23.79;62.20
81397;BME280;70852;49.908;8.126;2023-07-28T09:16:03;99629.81;;;23.69;62.03
81397;BME280;70852;49.908;8.126;2023-07-28T09:18:29;99622.09;;;24.00;61.53
81397;BME280;70852;49.908;8.126;2023-07-28T09:20:55;99626.56;;;23.98;62.10
81397;BME280;70852;49.908;8.126;2023-07-28T09:23:30;99626.22;;;24.23;61.23
81397;BME280;70852;49.908;8.126;2023-07-28T09:25:59;99622.19;;;25.53;55.72
81397;BME280;70852;49.908;8.126;2023-07-28T09:28:39;99629.00;;;26.28;55.23
81397;BME280;70852;49.908;8.126;2023-07-28T09:31:09;99623.19;;;25.82;55.83
81397;BME280;70852;49.908;8.126;2023-07-28T09:33:36;99621.47;;;25.29;56.34
81397;BME280;70852;49.908;8.126;2023-07-28T09:36:09;99622.53;;;25.55;58.91
81397;BME280;70852;49.908;8.126;2023-07-28T09:38:37;99621.56;;;26.50;53.48
81397;BME280;70852;49.908;8.126;2023-07-28T09:41:04;99624.44;;;25.98;55.48
81397;BME280;70852;49.908;8.126;2023-07-28T09:43:33;99618.13;;;25.34;57.63
81397;BME280;70852;49.908;8.126;2023-07-28T09:45:58;99626.16;;;24.50;58.50
81397;BME280;70852;49.908;8.126;2023-07-28T09:48:29;99628.59;;;23.70;62.92
81397;BME280;70852;49.908;8.126;2023-07-28T09:50:57;99620.03;;;23.13;62.40
81397;BME280;70852;49.908;8.126;2023-07-28T09:53:27;99629.09;;;22.94;64.00
81397;BME280;70852;49.908;8.126;2023-07-28T09:55:57;99616.13;;;23.04;65.82
81397;BME280;70852;49.908;8.126;2023-07-28T09:58:24;99616.41;;;23.77;64.26
81397;BME280;70852;49.908;8.126;2023-07-28T10:00:55;99626.66;;;24.44;61.59
81397;BME280;70852;49.908;8.126;2023-07-28T10:03:21;99622.00;;;24.07;60.21
81397;BME280;70852;49.908;8.126;2023-07-28T10:05:46;99630.72;;;24.17;60.44
81397;BME280;70852;49.908;8.126;2023-07-28T10:08:13;99623.28;;;24.76;60.64
81397;BME280;70852;49.908;8.126;2023-07-28T10:10:40;99627.09;;;24.66;58.55
81397;BME280;70852;49.908;8.126;2023-07-28T10:13:19;99625.94;;;24.14;58.36
81397;BME280;70852;49.908;8.126;2023-07-28T10:15:46;99631.44;;;24.24;59.68
81397;BME280;70852;49.908;8.126;2023-07-28T10:18:14;99629.66;;;24.07;60.63
81397;BME280;70852;49.908;8.126;2023-07-28T10:20:42;99625.66;;;23.78;61.41
81397;BME280;70852;49.908;8.126;2023-07-28T10:25:35;99627.16;;;23.21;63.32
81397;BME280;70852;49.908;8.126;2023-07-28T10:28:07;99629.50;;;22.92;63.56
81397;BME280;70852;49.908;8.126;2023-07-28T10:30:54;99639.66;;;22.83;63.88
81397;BME280;70852;49.908;8.126;2023-07-28T10:39:13;99642.25;;;22.63;66.37
81397;BME280;70852;49.908;8.126;2023-07-28T10:42:04;99642.97;;;22.71;68.37
81397;BME280;70852;49.908;8.126;2023-07-28T10:44:31;99638.38;;;22.91;64.57
81397;BME280;70852;49.908;8.126;2023-07-28T10:47:01;99648.28;;;23.06;65.04
81397;BME280;70852;49.908;8.126;2023-07-28T10:49:29;99644.31;;;23.00;64.64
81397;BME280;70852;49.908;8.126;2023-07-28T10:51:59;99644.88;;;22.84;66.26
81397;BME280;70852;49.908;8.126;2023-07-28T10:54:25;99641.38;;;22.70;64.66
81397;BME280;70852;49.908;8.126;2023-07-28T10:56:52;99635.81;;;22.62;65.41
81397;BME280;70852;49.908;8.126;2023-07-28T10:59:18;99634.88;;;22.80;65.88
81397;BME280;70852;49.908;8.126;2023-07-28T11:01:48;99645.47;;;23.06;65.68
81397;BME280;70852;49.908;8.126;2023-07-28T11:04:17;99642.16;;;22.70;66.09
81397;BME280;70852;49.908;8.126;2023-07-28T11:06:46;99647.38;;;22.72;66.56
81397;BME280;70852;49.908;8.126;2023-07-28T11:09:13;99652.31;;;22.60;66.58
81397;BME280;70852;49.908;8.126;2023-07-28T11:11:40;99655.31;;;22.39;67.40
81397;BME280;70852;49.908;8.126;2023-07-28T11:14:06;99656.22;;;22.25;66.76
81397;BME280;70852;49.908;8.126;2023-07-28T11:16:36;99651.94;;;22.07;66.71
81397;BME280;70852;49.908;8.126;2023-07-28T11:19:08;99654.44;;;21.90;67.42
81397;BME280;70852;49.908;8.126;2023-07-28T11:21:39;99652.84;;;21.82;68.18
81397;BME280;70852;49.908;8.126;2023-07-28T11:24:08;99653.22;;;21.91;68.16
81397;BME280;70852;49.908;8.126;2023-07-28T11:26:37;99665.34;;;21.74;69.25
81397;BME280;70852;49.908;8.126;2023-07-28T11:29:06;99662.13;;;21.76;70.12
81397;BME280;70852;49.908;8.126;2023-07-28T11:31:32;99667.75;;;21.72;69.50
81397;BME280;70852;49.908;8.126;2023-07-28T11:33:59;99663.84;;;21.52;72.14
81397;BME280;70852;49.908;8.126;2023-07-28T11:36:31;99658.28;;;21.45;73.04
81397;BME280;70852;49.908;8.126;2023-07-28T11:38:59;99663.88;;;21.45;72.83
81397;BME280;70852;49.908;8.126;2023-07-28T11:41:25;99669.09;;;21.50;73.00
81397;BME280;70852;49.908;8.126;2023-07-28T11:43:52;99669.19;;;21.25;74.33
81397;BME280;70852;49.908;8.126;2023-07-28T11:46:41;99661.53;;;21.33;74.52
81397;BME280;70852;49.908;8.126;2023-07-28T11:51:42;99661.53;;;21.36;74.52
81397;BME280;70852;49.908;8.126;2023-07-28T11:54:15;99655.09;;;21.32;73.44
81397;BME280;70852;49.908;8.126;2023-07-28T11:56:47;99659.50;;;21.37;73.85
81397;BME280;70852;49.908;8.126;2023-07-28T11:59:18;99659.41;;;21.58;69.88
81397;BME280;70852;49.908;8.126;2023-07-28T12:07:09;99660.63;;;22.26;68.51
81397;BME280;70852;49.908;8.126;2023-07-28T12:12:16;99659.03;;;22.25;67.32
81397;BME280;70852;49.908;8.126;2023-07-28T12:14:41;99654.75;;;22.07;67.26
81397;BME280;70852;49.908;8.126;2023-07-28T12:17:36;99662.41;;;22.03;68.45
81397;BME280;70852;49.908;8.126;2023-07-28T12:20:08;99655.19;;;21.95;69.25
81397;BME280;70852;49.908;8.126;2023-07-28T12:22:43;99654.03;;;21.92;68.90
81397;BME280;70852;49.908;8.126;2023-07-28T12:25:09;99661.19;;;22.04;68.39
81397;BME280;70852;49.908;8.126;2023-07-28T12:27:35;99661.19;;;22.04;69.23
81397;BME280;70852;49.908;8.126;2023-07-28T12:30:04;99659.03;;;22.25;69.86
81397;BME280;70852;49.908;8.126;2023-07-28T12:32:29;99656.22;;;22.25;67.96
81397;BME280;70852;49.908;8.126;2023-07-28T12:34:57;99661.31;;;22.41;66.16
81397;BME280;70852;49.908;8.126;2023-07-28T12:37:25;99651.22;;;22.92;65.82
81397;BME280;70852;49.908;8.126;2023-07-28T12:39:50;99648.00;;;22.93;65.99
81397;BME280;70852;49.908;8.126;2023-07-28T12:42:16;99656.09;;;23.25;63.09
81397;BME280;70852;49.908;8.126;2023-07-28T12:44:41;99654.66;;;23.44;63.58
81397;BME280;70852;49.908;8.126;2023-07-28T12:47:07;99651.03;;;23.44;62.63
81397;BME280;70852;49.908;8.126;2023-07-28T12:49:33;99656.50;;;23.61;62.30
81397;BME280;70852;49.908;8.126;2023-07-28T12:52:03;99653.19;;;23.66;62.80
81397;BME280;70852;49.908;8.126;2023-07-28T12:54:30;99651.66;;;23.62;63.37
81397;BME280;70852;49.908;8.126;2023-07-28T12:56:56;99660.69;;;23.50;64.13
81397;BME280;70852;49.908;8.126;2023-07-28T12:59:23;99654.94;;;23.57;64.02
81397;BME280;70852;49.908;8.126;2023-07-28T13:01:49;99650.22;;;23.47;63.13
81397;BME280;70852;49.908;8.126;2023-07-28T13:04:16;99653.97;;;23.97;62.33
81397;BME280;70852;49.908;8.126;2023-07-28T13:06:49;99654.31;;;24.03;61.50
81397;BME280;70852;49.908;8.126;2023-07-28T13:09:14;99667.06;;;23.54;63.91
81397;BME280;70852;49.908;8.126;2023-07-28T13:11:42;99663.69;;;23.66;63.88
81397;BME280;70852;49.908;8.126;2023-07-28T13:14:07;99663.63;;;23.69;62.62
81397;BME280;70852;49.908;8.126;2023-07-28T13:16:37;99662.28;;;23.47;63.31
81397;BME280;70852;49.908;8.126;2023-07-28T13:19:05;99669.22;;;23.39;63.25
81397;BME280;70852;49.908;8.126;2023-07-28T13:21:34;99669.66;;;23.38;62.41
81397;BME280;70852;49.908;8.126;2023-07-28T13:23:59;99657.81;;;23.16;63.15
81397;BME280;70852;49.908;8.126;2023-07-28T13:26:27;99666.91;;;22.93;63.67